Boisdale, Canada
Current Conditions -  °F | °C
As of 5:00 AM on Tuesday 21 Oct 2014 (Local Time) from CYQY Reporting Station
Few Clouds Few Clouds  
Wind Chill: 33°   Ceiling: Unl
Heat Index: 37°   Visibility: 15mi
Dew Point: 34°   Wind: 6mph
Humidity: 87%   Direction: 190°S
Pressure: 29.98"   Gusts: NA
Location:  46.1°N, 60.5°W
Report Text: CYQY 210800Z 19005KT 15SM FEW042 03/01 A2998 RMK SC2 SLP156
Loading
Personal Weather Stations






























Interactive Weather Map
Tropical Storm Tracking
New forecast layout! Learn more

10-Day Weather Forecast

Advertisements
Track Severe Weather on mobile